sensor_id;sensor_type;location;lat;lon;timestamp;temperature;humidity
21019;DHT22;10667;51.056;3.732;2023-07-20T00:02:01;19.60;99.90
21019;DHT22;10667;51.056;3.732;2023-07-20T00:04:28;19.60;99.90
21019;DHT22;10667;51.056;3.732;2023-07-20T00:06:53;19.50;99.90
21019;DHT22;10667;51.056;3.732;2023-07-20T00:09:19;19.50;99.90
21019;DHT22;10667;51.056;3.732;2023-07-20T00:11:50;19.50;99.90
21019;DHT22;10667;51.056;3.732;2023-07-20T00:14:16;19.50;99.90
21019;DHT22;10667;51.056;3.732;2023-07-20T00:16:42;19.50;99.90
21019;DHT22;10667;51.056;3.732;2023-07-20T00:19:08;19.50;99.90
21019;DHT22;10667;51.056;3.732;2023-07-20T00:21:34;19.40;99.90
21019;DHT22;10667;51.056;3.732;2023-07-20T00:24:00;19.40;99.90
21019;DHT22;10667;51.056;3.732;2023-07-20T00:26:25;19.40;99.90
21019;DHT22;10667;51.056;3.732;2023-07-20T00:28:51;19.40;99.90
21019;DHT22;10667;51.056;3.732;2023-07-20T00:31:17;19.40;99.90
21019;DHT22;10667;51.056;3.732;2023-07-20T00:33:42;19.30;99.90
21019;DHT22;10667;51.056;3.732;2023-07-20T00:36:08;19.20;99.90
21019;DHT22;10667;51.056;3.732;2023-07-20T00:38:34;19.20;99.90
21019;DHT22;10667;51.056;3.732;2023-07-20T00:40:59;19.20;99.90
21019;DHT22;10667;51.056;3.732;2023-07-20T00:43:25;19.10;99.90
21019;DHT22;10667;51.056;3.732;2023-07-20T00:45:51;19.10;99.90
21019;DHT22;10667;51.056;3.732;2023-07-20T00:48:16;19.10;99.90
21019;DHT22;10667;51.056;3.732;2023-07-20T00:50:42;19.00;99.90
21019;DHT22;10667;51.056;3.732;2023-07-20T00:53:08;19.00;99.90
21019;DHT22;10667;51.056;3.732;2023-07-20T00:55:34;19.10;99.90
21019;DHT22;10667;51.056;3.732;2023-07-20T00:58:00;19.00;99.90
21019;DHT22;10667;51.056;3.732;2023-07-20T01:00:26;19.00;99.90
21019;DHT22;10667;51.056;3.732;2023-07-20T01:02:53;19.00;99.90
21019;DHT22;10667;51.056;3.732;2023-07-20T01:05:19;18.90;99.90
21019;DHT22;10667;51.056;3.732;2023-07-20T01:07:57;18.90;99.90
21019;DHT22;10667;51.056;3.732;2023-07-20T01:10:43;19.00;99.90
21019;DHT22;10667;51.056;3.732;2023-07-20T01:13:10;18.90;99.90
21019;DHT22;10667;51.056;3.732;2023-07-20T01:15:36;18.90;99.90
21019;DHT22;10667;51.056;3.732;2023-07-20T01:18:02;18.90;99.90
21019;DHT22;10667;51.056;3.732;2023-07-20T01:20:31;18.90;99.90
21019;DHT22;10667;51.056;3.732;2023-07-20T01:29:17;18.80;99.90
21019;DHT22;10667;51.056;3.732;2023-07-20T01:31:51;18.70;99.90
21019;DHT22;10667;51.056;3.732;2023-07-20T01:34:19;18.70;99.90
21019;DHT22;10667;51.056;3.732;2023-07-20T01:36:48;18.60;99.90
21019;DHT22;10667;51.056;3.732;2023-07-20T01:39:15;18.70;99.90
21019;DHT22;10667;51.056;3.732;2023-07-20T01:41:42;18.70;99.90
21019;DHT22;10667;51.056;3.732;2023-07-20T01:44:08;18.70;99.90
21019;DHT22;10667;51.056;3.732;2023-07-20T01:46:34;18.70;99.90
21019;DHT22;10667;51.056;3.732;2023-07-20T01:48:59;18.60;99.90
21019;DHT22;10667;51.056;3.732;2023-07-20T01:51:25;18.60;99.90
21019;DHT22;10667;51.056;3.732;2023-07-20T01:53:51;18.50;99.90
21019;DHT22;10667;51.056;3.732;2023-07-20T01:56:16;18.60;99.90
21019;DHT22;10667;51.056;3.732;2023-07-20T01:58:42;18.60;99.90
21019;DHT22;10667;51.056;3.732;2023-07-20T02:01:07;18.50;99.90
21019;DHT22;10667;51.056;3.732;2023-07-20T02:03:33;18.60;99.90
21019;DHT22;10667;51.056;3.732;2023-07-20T02:05:59;18.50;99.90
21019;DHT22;10667;51.056;3.732;2023-07-20T02:08:25;18.40;99.90
21019;DHT22;10667;51.056;3.732;2023-07-20T02:10:51;18.40;99.90
21019;DHT22;10667;51.056;3.732;2023-07-20T02:13:17;18.50;99.90
21019;DHT22;10667;51.056;3.732;2023-07-20T02:15:43;18.40;99.90
21019;DHT22;10667;51.056;3.732;2023-07-20T02:18:09;18.50;99.90
21019;DHT22;10667;51.056;3.732;2023-07-20T02:20:35;18.50;99.90
21019;DHT22;10667;51.056;3.732;2023-07-20T02:23:01;18.40;99.90
21019;DHT22;10667;51.056;3.732;2023-07-20T02:25:27;18.40;99.90
21019;DHT22;10667;51.056;3.732;2023-07-20T02:27:52;18.50;99.90
21019;DHT22;10667;51.056;3.732;2023-07-20T02:30:18;18.60;99.90
21019;DHT22;10667;51.056;3.732;2023-07-20T02:32:44;18.60;99.90
21019;DHT22;10667;51.056;3.732;2023-07-20T02:35:14;18.60;99.90
21019;DHT22;10667;51.056;3.732;2023-07-20T02:37:40;18.60;99.90
21019;DHT22;10667;51.056;3.732;2023-07-20T02:40:06;18.70;99.90
21019;DHT22;10667;51.056;3.732;2023-07-20T02:42:32;18.60;99.90
21019;DHT22;10667;51.056;3.732;2023-07-20T02:44:58;18.50;99.90
21019;DHT22;10667;51.056;3.732;2023-07-20T02:47:24;18.60;99.90
21019;DHT22;10667;51.056;3.732;2023-07-20T02:49:49;18.50;99.90
21019;DHT22;10667;51.056;3.732;2023-07-20T02:52:15;18.50;99.90
21019;DHT22;10667;51.056;3.732;2023-07-20T02:54:41;18.40;99.90
21019;DHT22;10667;51.056;3.732;2023-07-20T02:57:06;18.50;99.90
21019;DHT22;10667;51.056;3.732;2023-07-20T02:59:32;18.60;99.90
21019;DHT22;10667;51.056;3.732;2023-07-20T03:01:58;18.60;99.90
21019;DHT22;10667;51.056;3.732;2023-07-20T03:04:26;18.60;99.90
21019;DHT22;10667;51.056;3.732;2023-07-20T03:06:52;18.50;99.90
21019;DHT22;10667;51.056;3.732;2023-07-20T03:09:18;18.60;99.90
21019;DHT22;10667;51.056;3.732;2023-07-20T03:11:43;18.50;99.90
21019;DHT22;10667;51.056;3.732;2023-07-20T03:14:09;18.50;99.90
21019;DHT22;10667;51.056;3.732;2023-07-20T03:16:36;18.40;99.90
21019;DHT22;10667;51.056;3.732;2023-07-20T03:19:01;18.60;99.90
21019;DHT22;10667;51.056;3.732;2023-07-20T03:21:27;18.60;99.90
21019;DHT22;10667;51.056;3.732;2023-07-20T03:23:54;18.60;99.90
21019;DHT22;10667;51.056;3.732;2023-07-20T03:26:20;18.60;99.90
21019;DHT22;10667;51.056;3.732;2023-07-20T03:28:45;18.50;99.90
21019;DHT22;10667;51.056;3.732;2023-07-20T03:31:11;18.50;99.90
21019;DHT22;10667;51.056;3.732;2023-07-20T03:33:37;18.60;99.90
21019;DHT22;10667;51.056;3.732;2023-07-20T03:36:02;18.60;99.90
21019;DHT22;10667;51.056;3.732;2023-07-20T03:38:28;18.50;99.90
21019;DHT22;10667;51.056;3.732;2023-07-20T03:40:56;18.50;99.90
21019;DHT22;10667;51.056;3.732;2023-07-20T03:43:23;18.50;99.90
21019;DHT22;10667;51.056;3.732;2023-07-20T03:45:49;18.40;99.90
21019;DHT22;10667;51.056;3.732;2023-07-20T03:48:17;18.40;99.90
21019;DHT22;10667;51.056;3.732;2023-07-20T03:50:44;18.40;99.90
21019;DHT22;10667;51.056;3.732;2023-07-20T03:53:11;18.40;99.90
21019;DHT22;10667;51.056;3.732;2023-07-20T03:55:37;18.50;99.90
21019;DHT22;10667;51.056;3.732;2023-07-20T03:58:02;18.50;99.90
21019;DHT22;10667;51.056;3.732;2023-07-20T04:00:28;18.40;99.90
21019;DHT22;10667;51.056;3.732;2023-07-20T04:02:54;18.50;99.90
21019;DHT22;10667;51.056;3.732;2023-07-20T04:05:20;18.50;99.90
21019;DHT22;10667;51.056;3.732;2023-07-20T04:07:46;18.50;99.90
21019;DHT22;10667;51.056;3.732;2023-07-20T04:10:12;18.60;99.90
21019;DHT22;10667;51.056;3.732;2023-07-20T04:12:38;18.50;99.90
21019;DHT22;10667;51.056;3.732;2023-07-20T04:15:04;18.50;99.90
21019;DHT22;10667;51.056;3.732;2023-07-20T04:17:29;18.40;99.90
21019;DHT22;10667;51.056;3.732;2023-07-20T04:19:55;18.40;99.90
21019;DHT22;10667;51.056;3.732;2023-07-20T04:22:21;18.40;99.90
21019;DHT22;10667;51.056;3.732;2023-07-20T04:24:47;18.40;99.90
21019;DHT22;10667;51.056;3.732;2023-07-20T04:27:12;18.40;99.90
21019;DHT22;10667;51.056;3.732;2023-07-20T04:29:38;18.40;99.90
21019;DHT22;10667;51.056;3.732;2023-07-20T04:32:04;18.50;99.90
21019;DHT22;10667;51.056;3.732;2023-07-20T04:34:30;18.50;99.90
21019;DHT22;10667;51.056;3.732;2023-07-20T04:36:55;18.50;99.90
21019;DHT22;10667;51.056;3.732;2023-07-20T04:39:21;18.50;99.90
21019;DHT22;10667;51.056;3.732;2023-07-20T04:41:46;18.40;99.90
21019;DHT22;10667;51.056;3.732;2023-07-20T04:44:13;18.40;99.90
21019;DHT22;10667;51.056;3.732;2023-07-20T04:46:39;18.50;99.90
21019;DHT22;10667;51.056;3.732;2023-07-20T04:49:05;18.50;99.90
21019;DHT22;10667;51.056;3.732;2023-07-20T04:51:31;18.50;99.90
21019;DHT22;10667;51.056;3.732;2023-07-20T04:53:57;18.60;99.90
21019;DHT22;10667;51.056;3.732;2023-07-20T04:56:23;18.50;99.90
21019;DHT22;10667;51.056;3.732;2023-07-20T04:58:50;18.60;99.90
21019;DHT22;10667;51.056;3.732;2023-07-20T05:01:15;18.60;99.90
21019;DHT22;10667;51.056;3.732;2023-07-20T05:03:41;18.60;99.90
21019;DHT22;10667;51.056;3.732;2023-07-20T05:06:07;18.60;99.90
21019;DHT22;10667;51.056;3.732;2023-07-20T05:08:32;18.60;99.90
21019;DHT22;10667;51.056;3.732;2023-07-20T05:10:59;18.60;99.90
21019;DHT22;10667;51.056;3.732;2023-07-20T05:13:25;18.70;99.90
21019;DHT22;10667;51.056;3.732;2023-07-20T05:15:52;18.70;99.90
21019;DHT22;10667;51.056;3.732;2023-07-20T05:18:18;18.80;99.90
21019;DHT22;10667;51.056;3.732;2023-07-20T05:20:48;18.90;99.90
21019;DHT22;10667;51.056;3.732;2023-07-20T05:23:14;18.80;99.90
21019;DHT22;10667;51.056;3.732;2023-07-20T05:25:40;18.90;99.90
21019;DHT22;10667;51.056;3.732;2023-07-20T05:28:06;18.90;99.90
21019;DHT22;10667;51.056;3.732;2023-07-20T05:30:32;18.90;99.90
21019;DHT22;10667;51.056;3.732;2023-07-20T05:32:57;19.00;99.90
21019;DHT22;10667;51.056;3.732;2023-07-20T05:35:23;19.00;99.90
21019;DHT22;10667;51.056;3.732;2023-07-20T05:37:49;19.00;99.90
21019;DHT22;10667;51.056;3.732;2023-07-20T05:40:15;19.00;99.90
21019;DHT22;10667;51.056;3.732;2023-07-20T05:42:45;19.10;99.90
21019;DHT22;10667;51.056;3.732;2023-07-20T05:45:11;19.10;99.90
21019;DHT22;10667;51.056;3.732;2023-07-20T05:47:37;19.20;99.90
21019;DHT22;10667;51.056;3.732;2023-07-20T05:50:03;19.30;99.90
21019;DHT22;10667;51.056;3.732;2023-07-20T05:52:29;19.30;99.90
21019;DHT22;10667;51.056;3.732;2023-07-20T05:54:55;19.30;99.90
21019;DHT22;10667;51.056;3.732;2023-07-20T05:57:21;19.30;99.90
21019;DHT22;10667;51.056;3.732;2023-07-20T05:59:46;19.30;99.90
21019;DHT22;10667;51.056;3.732;2023-07-20T06:02:12;19.30;99.90
21019;DHT22;10667;51.056;3.732;2023-07-20T06:04:39;19.40;99.90
21019;DHT22;10667;51.056;3.732;2023-07-20T06:07:05;19.40;99.90
21019;DHT22;10667;51.056;3.732;2023-07-20T06:09:31;19.40;99.90
21019;DHT22;10667;51.056;3.732;2023-07-20T06:11:56;19.40;99.90
21019;DHT22;10667;51.056;3.732;2023-07-20T06:14:22;19.50;99.90
21019;DHT22;10667;51.056;3.732;2023-07-20T06:16:48;19.50;99.90
21019;DHT22;10667;51.056;3.732;2023-07-20T06:19:13;19.60;99.90
21019;DHT22;10667;51.056;3.732;2023-07-20T06:21:39;19.60;99.90
21019;DHT22;10667;51.056;3.732;2023-07-20T06:24:05;19.70;99.90
21019;DHT22;10667;51.056;3.732;2023-07-20T06:26:31;19.70;99.90
21019;DHT22;10667;51.056;3.732;2023-07-20T06:29:03;19.70;99.90
21019;DHT22;10667;51.056;3.732;2023-07-20T06:31:29;19.80;99.90
21019;DHT22;10667;51.056;3.732;2023-07-20T06:33:54;19.80;99.90
21019;DHT22;10667;51.056;3.732;2023-07-20T06:36:20;19.80;99.90
21019;DHT22;10667;51.056;3.732;2023-07-20T06:38:46;19.90;99.90
21019;DHT22;10667;51.056;3.732;2023-07-20T06:41:11;20.00;99.90
21019;DHT22;10667;51.056;3.732;2023-07-20T06:43:37;20.10;99.90
21019;DHT22;10667;51.056;3.732;2023-07-20T06:46:03;20.10;99.90
21019;DHT22;10667;51.056;3.732;2023-07-20T06:48:29;20.10;99.90
21019;DHT22;10667;51.056;3.732;2023-07-20T06:50:55;20.20;99.90
21019;DHT22;10667;51.056;3.732;2023-07-20T06:53:21;20.20;99.90
21019;DHT22;10667;51.056;3.732;2023-07-20T06:55:46;20.10;99.90
21019;DHT22;10667;51.056;3.732;2023-07-20T06:58:12;20.10;99.90
21019;DHT22;10667;51.056;3.732;2023-07-20T07:00:38;20.20;99.90
21019;DHT22;10667;51.056;3.732;2023-07-20T07:03:04;20.30;99.90
21019;DHT22;10667;51.056;3.732;2023-07-20T07:05:30;20.40;99.90
21019;DHT22;10667;51.056;3.732;2023-07-20T07:07:55;20.30;99.90
21019;DHT22;10667;51.056;3.732;2023-07-20T07:10:21;20.40;99.90
21019;DHT22;10667;51.056;3.732;2023-07-20T07:12:47;20.40;99.90
21019;DHT22;10667;51.056;3.732;2023-07-20T07:15:12;20.40;99.90
21019;DHT22;10667;51.056;3.732;2023-07-20T07:17:38;20.40;99.90
21019;DHT22;10667;51.056;3.732;2023-07-20T07:20:05;20.40;99.90
21019;DHT22;10667;51.056;3.732;2023-07-20T07:22:30;20.50;99.90
21019;DHT22;10667;51.056;3.732;2023-07-20T07:24:56;20.60;99.90
21019;DHT22;10667;51.056;3.732;2023-07-20T07:27:22;20.70;99.90
21019;DHT22;10667;51.056;3.732;2023-07-20T07:29:47;20.70;99.90
21019;DHT22;10667;51.056;3.732;2023-07-20T07:32:14;20.70;99.90
21019;DHT22;10667;51.056;3.732;2023-07-20T07:34:40;20.70;99.90
21019;DHT22;10667;51.056;3.732;2023-07-20T07:37:06;20.70;99.90
21019;DHT22;10667;51.056;3.732;2023-07-20T07:39:31;20.70;99.90
21019;DHT22;10667;51.056;3.732;2023-07-20T07:41:57;20.70;99.90
21019;DHT22;10667;51.056;3.732;2023-07-20T07:44:23;20.70;99.90
21019;DHT22;10667;51.056;3.732;2023-07-20T07:46:49;20.80;99.90
21019;DHT22;10667;51.056;3.732;2023-07-20T07:49:15;20.90;99.90
21019;DHT22;10667;51.056;3.732;2023-07-20T07:51:41;21.10;99.90
21019;DHT22;10667;51.056;3.732;2023-07-20T07:54:06;21.20;99.90
21019;DHT22;10667;51.056;3.732;2023-07-20T07:56:32;21.20;99.90
21019;DHT22;10667;51.056;3.732;2023-07-20T07:58:58;21.20;99.90
21019;DHT22;10667;51.056;3.732;2023-07-20T08:01:23;21.30;99.90
21019;DHT22;10667;51.056;3.732;2023-07-20T08:03:49;21.30;99.90
21019;DHT22;10667;51.056;3.732;2023-07-20T08:06:15;21.40;99.90
21019;DHT22;10667;51.056;3.732;2023-07-20T08:08:41;21.60;99.90
21019;DHT22;10667;51.056;3.732;2023-07-20T08:11:08;21.80;99.90
21019;DHT22;10667;51.056;3.732;2023-07-20T08:13:34;21.90;99.90
21019;DHT22;10667;51.056;3.732;2023-07-20T08:16:00;21.90;99.90
21019;DHT22;10667;51.056;3.732;2023-07-20T08:18:28;22.10;99.90
21019;DHT22;10667;51.056;3.732;2023-07-20T08:20:53;22.00;99.90
21019;DHT22;10667;51.056;3.732;2023-07-20T08:23:19;21.90;99.90
21019;DHT22;10667;51.056;3.732;2023-07-20T08:25:45;21.90;99.90
21019;DHT22;10667;51.056;3.732;2023-07-20T08:28:13;21.90;99.90
21019;DHT22;10667;51.056;3.732;2023-07-20T08:30:43;21.90;99.90
21019;DHT22;10667;51.056;3.732;2023-07-20T08:33:17;22.00;99.90
21019;DHT22;10667;51.056;3.732;2023-07-20T08:35:45;22.10;99.90
21019;DHT22;10667;51.056;3.732;2023-07-20T08:38:11;22.10;99.90
21019;DHT22;10667;51.056;3.732;2023-07-20T08:40:42;22.20;99.90
21019;DHT22;10667;51.056;3.732;2023-07-20T08:43:09;22.20;99.90
21019;DHT22;10667;51.056;3.732;2023-07-20T08:45:36;22.20;99.90
21019;DHT22;10667;51.056;3.732;2023-07-20T08:48:05;22.10;99.90
21019;DHT22;10667;51.056;3.732;2023-07-20T08:50:31;22.20;99.90
21019;DHT22;10667;51.056;3.732;2023-07-20T08:52:58;22.40;99.90
21019;DHT22;10667;51.056;3.732;2023-07-20T08:55:28;22.50;99.90
21019;DHT22;10667;51.056;3.732;2023-07-20T08:57:55;22.60;99.90
21019;DHT22;10667;51.056;3.732;2023-07-20T09:00:22;22.60;99.90
21019;DHT22;10667;51.056;3.732;2023-07-20T09:02:50;22.70;99.90
21019;DHT22;10667;51.056;3.732;2023-07-20T09:05:17;22.70;99.90
21019;DHT22;10667;51.056;3.732;2023-07-20T09:07:43;22.70;99.90
21019;DHT22;10667;51.056;3.732;2023-07-20T09:10:09;22.70;99.90
21019;DHT22;10667;51.056;3.732;2023-07-20T09:12:37;22.60;99.90
21019;DHT22;10667;51.056;3.732;2023-07-20T09:15:04;22.70;99.90
21019;DHT22;10667;51.056;3.732;2023-07-20T09:17:30;22.70;99.90
21019;DHT22;10667;51.056;3.732;2023-07-20T09:19:55;22.80;99.90
21019;DHT22;10667;51.056;3.732;2023-07-20T09:22:21;22.90;99.90
21019;DHT22;10667;51.056;3.732;2023-07-20T09:24:47;23.10;99.90
21019;DHT22;10667;51.056;3.732;2023-07-20T09:27:13;23.30;99.90
21019;DHT22;10667;51.056;3.732;2023-07-20T09:29:48;23.60;99.90
21019;DHT22;10667;51.056;3.732;2023-07-20T09:32:18;23.60;99.90
21019;DHT22;10667;51.056;3.732;2023-07-20T09:34:46;23.50;99.90
21019;DHT22;10667;51.056;3.732;2023-07-20T09:37:12;23.40;99.90
21019;DHT22;10667;51.056;3.732;2023-07-20T09:39:45;23.50;99.90
21019;DHT22;10667;51.056;3.732;2023-07-20T09:42:15;23.50;99.90
21019;DHT22;10667;51.056;3.732;2023-07-20T09:44:43;23.50;99.90
21019;DHT22;10667;51.056;3.732;2023-07-20T09:47:09;23.40;99.90
21019;DHT22;10667;51.056;3.732;2023-07-20T09:49:41;23.40;99.90
21019;DHT22;10667;51.056;3.732;2023-07-20T09:52:08;23.40;99.90
21019;DHT22;10667;51.056;3.732;2023-07-20T09:54:38;23.40;99.90
21019;DHT22;10667;51.056;3.732;2023-07-20T09:57:09;23.30;99.90
21019;DHT22;10667;51.056;3.732;2023-07-20T09:59:36;23.30;99.90
21019;DHT22;10667;51.056;3.732;2023-07-20T10:02:07;23.30;99.90
21019;DHT22;10667;51.056;3.732;2023-07-20T10:04:37;23.40;99.90
21019;DHT22;10667;51.056;3.732;2023-07-20T10:07:05;23.50;99.90
21019;DHT22;10667;51.056;3.732;2023-07-20T10:09:37;23.60;99.90
21019;DHT22;10667;51.056;3.732;2023-07-20T10:12:05;23.70;99.90
21019;DHT22;10667;51.056;3.732;2023-07-20T10:14:32;23.80;99.90
21019;DHT22;10667;51.056;3.732;2023-07-20T10:17:01;23.90;99.90
21019;DHT22;10667;51.056;3.732;2023-07-20T10:19:37;24.20;99.90
21019;DHT22;10667;51.056;3.732;2023-07-20T10:22:10;24.60;99.90
21019;DHT22;10667;51.056;3.732;2023-07-20T10:24:38;24.90;99.90
21019;DHT22;10667;51.056;3.732;2023-07-20T10:27:05;25.00;99.90
21019;DHT22;10667;51.056;3.732;2023-07-20T10:29:31;25.00;99.90
21019;DHT22;10667;51.056;3.732;2023-07-20T10:31:57;25.10;99.90
21019;DHT22;10667;51.056;3.732;2023-07-20T10:34:24;25.00;99.90
21019;DHT22;10667;51.056;3.732;2023-07-20T10:36:50;25.00;99.90
21019;DHT22;10667;51.056;3.732;2023-07-20T10:39:27;25.10;99.90
21019;DHT22;10667;51.056;3.732;2023-07-20T10:42:10;25.20;99.90
21019;DHT22;10667;51.056;3.732;2023-07-20T10:44:39;25.30;99.90
21019;DHT22;10667;51.056;3.732;2023-07-20T10:47:12;25.40;99.90
21019;DHT22;10667;51.056;3.732;2023-07-20T10:50:00;25.30;99.90
21019;DHT22;10667;51.056;3.732;2023-07-20T10:52:26;25.30;99.90
21019;DHT22;10667;51.056;3.732;2023-07-20T10:54:51;25.10;99.90
21019;DHT22;10667;51.056;3.732;2023-07-20T10:57:25;25.10;99.90
21019;DHT22;10667;51.056;3.732;2023-07-20T11:00:07;25.10;99.90
21019;DHT22;10667;51.056;3.732;2023-07-20T11:02:43;25.20;99.90
21019;DHT22;10667;51.056;3.732;2023-07-20T11:07:57;25.00;99.80
21019;DHT22;10667;51.056;3.732;2023-07-20T11:10:22;24.90;99.90
21019;DHT22;10667;51.056;3.732;2023-07-20T11:13:20;24.80;99.90
21019;DHT22;10667;51.056;3.732;2023-07-20T11:16:07;24.80;99.90
21019;DHT22;10667;51.056;3.732;2023-07-20T11:18:33;24.70;99.90
21019;DHT22;10667;51.056;3.732;2023-07-20T11:21:00;24.60;99.90
21019;DHT22;10667;51.056;3.732;2023-07-20T11:23:25;24.50;99.90
21019;DHT22;10667;51.056;3.732;2023-07-20T11:25:51;24.40;99.90
21019;DHT22;10667;51.056;3.732;2023-07-20T11:28:17;24.30;99.90
21019;DHT22;10667;51.056;3.732;2023-07-20T11:30:43;24.20;99.90
21019;DHT22;10667;51.056;3.732;2023-07-20T11:33:09;24.10;99.90
21019;DHT22;10667;51.056;3.732;2023-07-20T11:35:41;24.00;99.90
21019;DHT22;10667;51.056;3.732;2023-07-20T11:38:07;23.90;99.90
21019;DHT22;10667;51.056;3.732;2023-07-20T11:40:33;24.00;99.90
21019;DHT22;10667;51.056;3.732;2023-07-20T11:42:59;23.90;99.90
21019;DHT22;10667;51.056;3.732;2023-07-20T11:45:25;24.00;99.90
21019;DHT22;10667;51.056;3.732;2023-07-20T11:47:53;24.00;99.90
21019;DHT22;10667;51.056;3.732;2023-07-20T11:50:18;23.90;99.90
21019;DHT22;10667;51.056;3.732;2023-07-20T11:52:44;23.80;99.90
21019;DHT22;10667;51.056;3.732;2023-07-20T11:55:10;23.70;99.90
21019;DHT22;10667;51.056;3.732;2023-07-20T11:57:36;23.60;99.90
21019;DHT22;10667;51.056;3.732;2023-07-20T12:00:04;23.50;99.90
21019;DHT22;10667;51.056;3.732;2023-07-20T12:02:34;23.50;99.90
21019;DHT22;10667;51.056;3.732;2023-07-20T12:05:02;23.60;99.90
21019;DHT22;10667;51.056;3.732;2023-07-20T12:07:28;23.60;99.90
21019;DHT22;10667;51.056;3.732;2023-07-20T12:10:07;23.50;99.90
21019;DHT22;10667;51.056;3.732;2023-07-20T12:12:35;23.60;99.90
21019;DHT22;10667;51.056;3.732;2023-07-20T12:15:22;23.70;99.90
21019;DHT22;10667;51.056;3.732;2023-07-20T12:17:53;23.90;99.90
21019;DHT22;10667;51.056;3.732;2023-07-20T12:20:58;24.10;99.90
21019;DHT22;10667;51.056;3.732;2023-07-20T12:23:24;24.50;99.90
21019;DHT22;10667;51.056;3.732;2023-07-20T12:25:49;24.60;99.90
21019;DHT22;10667;51.056;3.732;2023-07-20T12:28:18;24.70;99.90
21019;DHT22;10667;51.056;3.732;2023-07-20T12:30:45;24.90;99.90
21019;DHT22;10667;51.056;3.732;2023-07-20T12:33:11;24.80;99.90
21019;DHT22;10667;51.056;3.732;2023-07-20T12:35:41;24.80;99.90
21019;DHT22;10667;51.056;3.732;2023-07-20T12:38:08;24.80;99.90
21019;DHT22;10667;51.056;3.732;2023-07-20T12:40:34;24.60;99.90
21019;DHT22;10667;51.056;3.732;2023-07-20T12:43:00;24.90;99.90
21019;DHT22;10667;51.056;3.732;2023-07-20T12:45:26;25.50;99.90
21019;DHT22;10667;51.056;3.732;2023-07-20T12:47:52;26.20;99.90
21019;DHT22;10667;51.056;3.732;2023-07-20T12:50:18;26.60;99.70
21019;DHT22;10667;51.056;3.732;2023-07-20T12:52:43;26.90;98.90
21019;DHT22;10667;51.056;3.732;2023-07-20T12:55:10;27.10;99.80
21019;DHT22;10667;51.056;3.732;2023-07-20T12:57:36;27.70;98.10
21019;DHT22;10667;51.056;3.732;2023-07-20T13:00:07;28.10;93.90
21019;DHT22;10667;51.056;3.732;2023-07-20T13:02:36;28.50;93.90
21019;DHT22;10667;51.056;3.732;2023-07-20T13:05:02;28.30;93.10
21019;DHT22;10667;51.056;3.732;2023-07-20T13:07:33;28.30;93.40
21019;DHT22;10667;51.056;3.732;2023-07-20T13:10:00;28.20;93.40
21019;DHT22;10667;51.056;3.732;2023-07-20T13:12:29;28.10;92.80
21019;DHT22;10667;51.056;3.732;2023-07-20T13:14:56;27.90;92.50
21019;DHT22;10667;51.056;3.732;2023-07-20T13:17:22;27.60;92.80
21019;DHT22;10667;51.056;3.732;2023-07-20T13:19:48;27.30;93.80
21019;DHT22;10667;51.056;3.732;2023-07-20T13:22:14;27.10;93.50
21019;DHT22;10667;51.056;3.732;2023-07-20T13:24:41;26.80;94.20
21019;DHT22;10667;51.056;3.732;2023-07-20T13:27:07;26.60;94.10
21019;DHT22;10667;51.056;3.732;2023-07-20T13:29:32;26.30;94.70
21019;DHT22;10667;51.056;3.732;2023-07-20T13:31:58;26.10;94.90
21019;DHT22;10667;51.056;3.732;2023-07-20T13:34:25;26.00;96.90
21019;DHT22;10667;51.056;3.732;2023-07-20T13:36:51;25.80;98.00
21019;DHT22;10667;51.056;3.732;2023-07-20T13:39:17;25.50;98.40
21019;DHT22;10667;51.056;3.732;2023-07-20T13:41:43;25.30;96.90
21019;DHT22;10667;51.056;3.732;2023-07-20T13:44:09;25.10;97.40
21019;DHT22;10667;51.056;3.732;2023-07-20T13:46:35;24.90;97.80
21019;DHT22;10667;51.056;3.732;2023-07-20T13:49:00;24.80;98.60
21019;DHT22;10667;51.056;3.732;2023-07-20T13:51:26;24.70;98.80
21019;DHT22;10667;51.056;3.732;2023-07-20T13:53:52;24.60;99.90
21019;DHT22;10667;51.056;3.732;2023-07-20T13:56:18;24.50;99.50
21019;DHT22;10667;51.056;3.732;2023-07-20T13:58:43;24.20;99.90
21019;DHT22;10667;51.056;3.732;2023-07-20T14:01:09;24.20;99.90
21019;DHT22;10667;51.056;3.732;2023-07-20T14:03:34;23.90;99.90
21019;DHT22;10667;51.056;3.732;2023-07-20T14:06:00;23.60;99.90
21019;DHT22;10667;51.056;3.732;2023-07-20T14:08:26;23.50;99.90
21019;DHT22;10667;51.056;3.732;2023-07-20T14:10:51;23.30;99.90
21019;DHT22;10667;51.056;3.732;2023-07-20T14:13:17;22.70;99.90
21019;DHT22;10667;51.056;3.732;2023-07-20T14:15:43;22.20;99.90
21019;DHT22;10667;51.056;3.732;2023-07-20T14:18:08;22.00;99.90
21019;DHT22;10667;51.056;3.732;2023-07-20T14:20:34;21.90;99.90
21019;DHT22;10667;51.056;3.732;2023-07-20T14:23:00;21.50;99.90
21019;DHT22;10667;51.056;3.732;2023-07-20T14:25:26;21.20;99.90
21019;DHT22;10667;51.056;3.732;2023-07-20T14:27:51;21.00;99.90
21019;DHT22;10667;51.056;3.732;2023-07-20T14:30:17;20.90;99.90
21019;DHT22;10667;51.056;3.732;2023-07-20T14:32:43;20.70;99.90
21019;DHT22;10667;51.056;3.732;2023-07-20T14:35:09;20.60;99.90
21019;DHT22;10667;51.056;3.732;2023-07-20T14:37:34;20.30;99.90
21019;DHT22;10667;51.056;3.732;2023-07-20T14:40:00;20.30;99.90
21019;DHT22;10667;51.056;3.732;2023-07-20T14:42:26;20.40;99.90
21019;DHT22;10667;51.056;3.732;2023-07-20T14:44:52;20.40;99.90
21019;DHT22;10667;51.056;3.732;2023-07-20T14:47:17;20.40;99.90
21019;DHT22;10667;51.056;3.732;2023-07-20T14:49:43;20.40;99.90
21019;DHT22;10667;51.056;3.732;2023-07-20T14:52:09;20.40;99.90
21019;DHT22;10667;51.056;3.732;2023-07-20T14:54:35;20.30;99.90
21019;DHT22;10667;51.056;3.732;2023-07-20T14:57:00;20.20;99.90
21019;DHT22;10667;51.056;3.732;2023-07-20T14:59:26;20.10;99.90
21019;DHT22;10667;51.056;3.732;2023-07-20T15:01:52;20.10;99.90
21019;DHT22;10667;51.056;3.732;2023-07-20T15:04:18;20.10;99.90
21019;DHT22;10667;51.056;3.732;2023-07-20T15:06:44;20.00;99.90
21019;DHT22;10667;51.056;3.732;2023-07-20T15:09:09;20.00;99.90
21019;DHT22;10667;51.056;3.732;2023-07-20T15:11:36;19.90;99.90
21019;DHT22;10667;51.056;3.732;2023-07-20T15:14:02;19.90;99.90
21019;DHT22;10667;51.056;3.732;2023-07-20T15:16:28;19.80;99.90
21019;DHT22;10667;51.056;3.732;2023-07-20T15:18:54;19.80;99.90
21019;DHT22;10667;51.056;3.732;2023-07-20T15:21:19;19.90;99.90
21019;DHT22;10667;51.056;3.732;2023-07-20T15:23:45;20.10;99.90
21019;DHT22;10667;51.056;3.732;2023-07-20T15:26:11;20.00;99.90
21019;DHT22;10667;51.056;3.732;2023-07-20T15:28:38;20.10;99.90
21019;DHT22;10667;51.056;3.732;2023-07-20T15:31:04;20.10;99.90
21019;DHT22;10667;51.056;3.732;2023-07-20T15:33:31;20.00;99.90
21019;DHT22;10667;51.056;3.732;2023-07-20T15:35:57;20.10;99.90
21019;DHT22;10667;51.056;3.732;2023-07-20T15:38:23;20.10;99.90